Time;durP1;ratioP1;P1;durP2;ratioP2;P2;SDS_P1;SDS_P2;PMS_P1;PMS_P2;Temp;Humidity;BMP_temperature;BMP_pressure;BME280_temperature;BME280_humidity;BME280_pressure;Samples;Min_cycle;Max_cycle;Signal;HPM_P1;HPM_P2
2022/10/09 00:04:01;;;;;;;14.50;8.93;;;;;;;14.31;61.06;100295.00;7606685;32;40123;-78
2022/10/09 00:08:17;;;;;;;14.18;8.63;;;;;;;14.40;61.55;100294.13;7606765;32;40033;-77
2022/10/09 00:12:33;;;;;;;17.00;9.38;;;;;;;14.38;61.18;100296.31;7606647;32;38230;-78
2022/10/09 00:16:49;;;;;;;13.62;8.45;;;;;;;14.32;61.53;100304.87;7606722;32;37102;-78
2022/10/09 00:21:13;;;;;;;19.48;9.10;;;;;;;14.44;60.89;100294.37;7606469;32;39452;-77
2022/10/09 00:25:29;;;;;;;14.85;8.32;;;;;;;14.63;60.30;100297.28;7580780;33;40913;-77
2022/10/09 00:29:45;;;;;;;16.62;9.13;;;;;;;14.52;60.63;100296.50;7580496;33;38788;-78
2022/10/09 00:34:02;;;;;;;15.25;8.90;;;;;;;14.08;61.75;100291.84;7580623;33;36897;-78
2022/10/09 00:38:18;;;;;;;15.70;9.55;;;;;;;14.15;61.49;100295.09;7580635;33;40178;-75
2022/10/09 00:42:34;;;;;;;15.52;9.23;;;;;;;13.97;61.83;100277.37;7580513;33;40094;-76
2022/10/09 00:46:51;;;;;;;13.93;9.07;;;;;;;14.17;61.29;100279.16;7580494;33;38058;-77
2022/10/09 00:51:07;;;;;;;22.50;10.18;;;;;;;14.01;62.01;100283.12;7591441;32;37802;-77
2022/10/09 00:55:24;;;;;;;16.92;9.45;;;;;;;14.11;61.94;100282.22;7603853;32;39303;-76
2022/10/09 00:59:40;;;;;;;16.35;9.48;;;;;;;14.13;62.20;100289.06;7617209;32;40830;-78
2022/10/09 01:03:57;;;;;;;14.65;9.80;;;;;;;13.95;63.04;100286.97;7605905;32;38612;-78
2022/10/09 01:08:14;;;;;;;13.90;9.18;;;;;;;13.93;62.59;100273.56;7606081;32;37127;-78
2022/10/09 01:12:45;;;;;;;15.48;9.95;;;;;;;14.03;62.38;100273.50;7617202;32;39123;-78
2022/10/09 01:17:09;;;;;;;20.70;11.25;;;;;;;13.84;63.25;100267.84;7605772;32;40039;-76
2022/10/09 01:21:33;;;;;;;;;;;;;;;13.77;64.46;100261.84;7617007;32;38497;-77
2022/10/09 01:26:14;;;;;;;18.95;11.93;;;;;;;13.89;63.33;100265.06;7606308;32;36847;-75
2022/10/09 01:30:31;;;;;;;16.80;10.82;;;;;;;13.93;63.49;100275.47;7605934;32;39040;-78
2022/10/09 01:34:49;;;;;;;22.85;11.93;;;;;;;13.93;62.95;100267.25;7616765;32;40876;-78
2022/10/09 01:39:08;;;;;;;18.77;11.68;;;;;;;13.84;63.11;100265.09;7615672;32;40443;-78
2022/10/09 01:43:24;;;;;;;24.90;12.50;;;;;;;13.75;63.74;100277.75;7616601;32;36806;-76
2022/10/09 01:47:40;;;;;;;20.05;12.75;;;;;;;13.80;63.74;100266.78;7604991;32;40339;-77
2022/10/09 01:52:27;;;;;;;16.10;10.77;;;;;;;13.84;63.65;100270.59;7605515;32;40383;-77
2022/10/09 01:56:46;;;;;;;16.30;10.95;;;;;;;13.83;63.49;100268.13;7597515;32;38816;-76
2022/10/09 02:01:20;;;;;;;22.92;13.05;;;;;;;13.86;63.16;100268.38;7605311;32;38525;-78
2022/10/09 02:05:38;;;;;;;21.15;12.82;;;;;;;13.80;63.61;100285.97;7605270;32;39152;-77
2022/10/09 02:09:55;;;;;;;25.40;13.95;;;;;;;13.85;63.36;100294.16;7615626;32;40838;-78
2022/10/09 02:14:11;;;;;;;24.17;12.95;;;;;;;13.85;63.40;100293.34;7604650;32;37932;-78
2022/10/09 02:18:36;;;;;;;19.55;12.65;;;;;;;13.96;62.99;100294.13;7605073;32;37026;-78
2022/10/09 02:22:53;;;;;;;20.85;13.95;;;;;;;13.58;64.71;100282.78;7615650;32;39425;-77
2022/10/09 02:27:11;;;;;;;25.98;14.07;;;;;;;13.63;64.53;100286.31;7615593;32;39958;-77
2022/10/09 02:31:29;;;;;;;20.30;11.85;;;;;;;13.64;64.72;100295.34;7604528;32;38155;-75
2022/10/09 02:35:46;;;;;;;21.33;14.00;;;;;;;14.02;66.92;100306.66;7604609;32;36361;-76
2022/10/09 02:40:02;;;;;;;24.95;14.98;;;;;;;13.68;65.85;100315.63;7604483;32;39420;-77
2022/10/09 02:44:25;;;;;;;20.30;13.93;;;;;;;13.83;65.06;100322.94;7604026;32;40699;-78
2022/10/09 02:48:42;;;;;;;27.20;16.10;;;;;;;13.74;65.35;100325.44;7604108;32;38736;-76
2022/10/09 02:52:58;;;;;;;25.35;16.90;;;;;;;13.63;66.14;100327.41;7607764;32;37052;-76
2022/10/09 02:57:14;;;;;;;26.85;17.35;;;;;;;13.78;65.74;100315.56;7607661;32;40161;-77
2022/10/09 03:01:30;;;;;;;27.23;18.33;;;;;;;13.89;65.50;100330.03;7607576;32;40008;-77
2022/10/09 03:05:46;;;;;;;26.98;18.00;;;;;;;13.78;65.66;100321.06;7607426;32;38130;-77
2022/10/09 03:10:02;;;;;;;28.15;18.45;;;;;;;13.80;65.63;100323.53;7607099;32;37961;-75
2022/10/09 03:14:18;;;;;;;29.15;17.55;;;;;;;13.83;65.42;100318.28;7617948;32;40086;-76
2022/10/09 03:18:35;;;;;;;28.92;18.30;;;;;;;14.01;64.78;100322.31;7607336;32;40142;-77
2022/10/09 03:22:51;;;;;;;28.58;17.70;;;;;;;14.10;64.53;100333.50;7607261;32;38779;-77
2022/10/09 03:27:07;;;;;;;26.73;18.75;;;;;;;13.94;64.79;100345.66;7607003;32;37011;-78
2022/10/09 03:31:24;;;;;;;29.42;19.77;;;;;;;14.20;63.94;100365.53;7607199;32;39142;-77
2022/10/09 03:36:01;;;;;;;28.83;19.48;;;;;;;14.01;64.50;100377.13;7606976;32;40196;-77
2022/10/09 03:40:17;;;;;;;25.88;19.52;;;;;;;14.00;64.75;100355.47;7606685;32;38123;-77
2022/10/09 03:44:33;;;;;;;31.45;20.12;;;;;;;13.93;65.43;100357.72;7607063;32;38170;-77
2022/10/09 03:48:49;;;;;;;28.48;18.87;;;;;;;13.96;65.45;100371.66;7606752;32;40021;-77
2022/10/09 03:53:06;;;;;;;27.37;18.77;;;;;;;14.03;65.31;100358.47;7606913;32;39901;-77
2022/10/09 03:57:22;;;;;;;29.85;19.33;;;;;;;14.07;65.18;100354.09;7606753;32;38059;-77
2022/10/09 04:01:39;;;;;;;30.20;20.85;;;;;;;14.03;65.81;100361.22;7606190;32;38273;-78
2022/10/09 04:05:55;;;;;;;37.25;23.85;;;;;;;14.13;65.42;100359.56;7606721;32;40023;-78
2022/10/09 04:10:11;;;;;;;34.05;23.02;;;;;;;13.91;67.25;100347.03;7606389;32;40788;-78
2022/10/09 04:14:27;;;;;;;46.03;23.27;;;;;;;14.12;66.54;100331.28;7606653;32;38769;-78
2022/10/09 04:18:44;;;;;;;38.83;23.73;;;;;;;14.25;65.67;100344.41;7606458;32;37974;-75
2022/10/09 04:23:00;;;;;;;33.58;23.40;;;;;;;14.25;65.78;100360.84;7606566;32;40064;-77
2022/10/09 04:27:16;;;;;;;36.55;24.52;;;;;;;14.12;66.10;100379.84;7606157;32;40824;-78
2022/10/09 04:31:32;;;;;;;36.70;23.38;;;;;;;13.86;67.43;100369.78;7606400;32;37992;-78
2022/10/09 04:35:52;;;;;;;40.22;25.33;;;;;;;13.68;68.03;100392.31;7606462;32;37294;-78
2022/10/09 04:40:09;;;;;;;35.30;26.05;;;;;;;13.85;67.53;100375.56;7605855;32;39098;-79
2022/10/09 04:44:25;;;;;;;34.30;23.73;;;;;;;13.73;67.88;100389.56;7606001;32;40707;-78
2022/10/09 04:48:43;;;;;;;37.15;25.17;;;;;;;13.64;68.04;100397.53;7606227;32;38698;-78
2022/10/09 04:52:59;;;;;;;36.10;24.65;;;;;;;13.96;66.76;100395.53;7606437;32;36953;-77
2022/10/09 04:57:15;;;;;;;42.62;25.52;;;;;;;14.00;66.42;100393.88;7606076;32;39312;-78
2022/10/09 05:01:31;;;;;;;40.22;25.50;;;;;;;13.81;67.09;100410.09;7605689;32;39915;-78
2022/10/09 05:05:53;;;;;;;40.17;25.75;;;;;;;14.06;65.99;100401.78;7605872;32;37777;-79
2022/10/09 05:10:09;;;;;;;39.05;27.15;;;;;;;13.98;66.57;100412.50;7605923;32;37085;-78
2022/10/09 05:14:25;;;;;;;36.97;25.10;;;;;;;13.93;66.46;100404.31;7604918;32;39867;-78
2022/10/09 05:18:46;;;;;;;41.42;27.00;;;;;;;13.82;66.66;100411.75;7605929;32;39946;-78
2022/10/09 05:23:03;;;;;;;40.42;24.65;;;;;;;13.77;68.03;100407.09;7605854;32;37672;-79
2022/10/09 05:27:19;;;;;;;34.70;25.10;;;;;;;13.96;67.30;100412.78;7605378;32;38086;-79
2022/10/09 05:31:36;;;;;;;36.88;23.27;;;;;;;13.96;67.38;100426.50;7605835;32;39179;-79
2022/10/09 05:35:54;;;;;;;37.00;25.10;;;;;;;14.32;65.95;100425.56;7616611;32;40912;-78
2022/10/09 05:40:10;;;;;;;33.45;22.90;;;;;;;14.14;66.53;100437.94;7605341;32;38142;-77
2022/10/09 05:44:26;;;;;;;36.63;24.52;;;;;;;14.12;67.09;100435.47;7605528;32;37328;-77
2022/10/09 05:48:44;;;;;;;36.22;23.00;;;;;;;14.18;66.72;100434.38;7605474;32;39568;-78
2022/10/09 05:53:01;;;;;;;36.55;24.67;;;;;;;14.28;66.28;100450.78;7605449;32;40895;-76
2022/10/09 05:57:17;;;;;;;31.75;21.70;;;;;;;14.38;66.35;100455.41;7605354;32;38370;-78
2022/10/09 06:01:35;;;;;;;35.20;22.75;;;;;;;14.39;66.04;100456.25;7605353;32;35732;-77
2022/10/09 06:05:58;;;;;;;37.95;23.25;;;;;;;14.55;65.36;100452.31;7605055;32;39473;-77
2022/10/09 06:10:14;;;;;;;37.67;24.73;;;;;;;14.45;66.29;100455.94;7604577;32;39964;-77
2022/10/09 06:14:30;;;;;;;30.98;21.67;;;;;;;14.67;66.12;100456.69;7604956;32;38878;-77
2022/10/09 06:18:46;;;;;;;31.98;23.00;;;;;;;14.63;66.42;100465.47;7604995;32;37236;-77
2022/10/09 06:23:04;;;;;;;33.63;22.45;;;;;;;15.03;65.58;100471.81;7604580;32;39762;-79
2022/10/09 06:27:20;;;;;;;33.08;22.55;;;;;;;14.73;66.66;100470.09;7618719;32;40012;-78
2022/10/09 06:31:36;;;;;;;36.92;22.05;;;;;;;15.11;65.58;100472.31;7607778;32;37997;-78
2022/10/09 06:35:52;;;;;;;35.97;22.42;;;;;;;15.27;65.43;100482.09;7607917;32;37290;-74
2022/10/09 06:40:20;;;;;;;30.80;20.48;;;;;;;15.12;66.62;100479.44;7607562;32;40302;-75
2022/10/09 06:44:37;;;;;;;32.28;19.62;;;;;;;15.51;65.60;100493.16;7607753;32;39707;-75
2022/10/09 06:48:53;;;;;;;29.35;20.67;;;;;;;15.07;69.58;100493.22;7618565;32;38714;-80
2022/10/09 06:53:09;;;;;;;36.20;23.12;;;;;;;15.10;67.57;100498.16;7607772;32;37746;-69
2022/10/09 06:57:25;;;;;;;29.80;20.12;;;;;;;15.31;67.32;100496.06;7607433;32;40002;-70
2022/10/09 07:01:41;;;;;;;29.45;18.85;;;;;;;16.01;65.25;100505.94;7607491;32;40394;-70
2022/10/09 07:06:18;;;;;;;28.25;18.70;;;;;;;15.77;65.93;100502.03;7607292;32;38870;-70
2022/10/09 07:10:34;;;;;;;24.67;17.02;;;;;;;16.50;64.22;100497.38;7607015;32;37114;-69
2022/10/09 07:14:50;;;;;;;28.85;15.93;;;;;;;16.01;64.28;100505.94;7606550;32;40074;-69
2022/10/09 07:19:09;;;;;;;22.33;14.60;;;;;;;16.17;64.14;100506.59;7606442;32;40864;-69
2022/10/09 07:23:30;;;;;;;18.62;11.50;;;;;;;16.82;61.92;100498.63;7606955;32;38144;-70
2022/10/09 07:27:47;;;;;;;18.05;10.90;;;;;;;16.83;59.81;100499.44;7607330;32;37187;-69
2022/10/09 07:32:03;;;;;;;17.75;10.52;;;;;;;16.63;59.78;100511.56;7607058;32;39856;-70
2022/10/09 07:36:25;;;;;;;16.08;10.73;;;;;;;16.64;59.87;100505.75;7606422;32;39757;-69
2022/10/09 07:40:41;;;;;;;17.75;8.57;;;;;;;16.82;59.95;100503.31;7605842;32;38037;-70
2022/10/09 07:44:57;;;;;;;13.18;8.07;;;;;;;16.95;59.14;100505.34;7607030;32;37128;-77
2022/10/09 07:49:13;;;;;;;15.85;7.87;;;;;;;16.83;56.19;100510.44;7606126;32;40085;-74
2022/10/09 07:53:29;;;;;;;18.90;8.10;;;;;;;16.89;57.02;100509.31;7597349;32;40827;-76
2022/10/09 07:57:50;;;;;;;12.55;7.50;;;;;;;17.52;55.71;100508.06;7605961;32;37968;-75
2022/10/09 08:02:08;;;;;;;20.50;8.43;;;;;;;17.41;55.36;100510.19;7606526;32;36014;-76
2022/10/09 08:06:24;;;;;;;15.43;8.77;;;;;;;17.50;54.86;100513.06;7605751;32;40067;-75
2022/10/09 08:10:41;;;;;;;14.82;8.90;;;;;;;17.43;55.64;100518.16;7605131;32;39904;-75
2022/10/09 08:14:57;;;;;;;15.93;8.80;;;;;;;17.38;55.81;100521.00;7605493;32;39016;-74
2022/10/09 08:19:13;;;;;;;13.30;8.32;;;;;;;17.49;56.46;100522.47;7604749;32;37811;-75
2022/10/09 08:23:29;;;;;;;17.00;7.80;;;;;;;17.67;54.36;100517.22;7617198;32;40050;-75
2022/10/09 08:27:45;;;;;;;14.45;7.87;;;;;;;17.79;55.79;100517.56;7606063;32;39934;-76
2022/10/09 08:32:01;;;;;;;14.23;7.65;;;;;;;17.71;54.09;100529.28;7606083;32;38699;-75
2022/10/09 08:36:17;;;;;;;11.65;7.07;;;;;;;18.02;54.05;100524.06;7604721;32;37062;-73
2022/10/09 08:40:44;;;;;;;13.80;7.18;;;;;;;18.18;54.25;100525.44;7603270;32;39429;-73
2022/10/09 08:45:01;;;;;;;12.13;7.55;;;;;;;18.27;53.94;100525.53;7604120;32;40657;-74
2022/10/09 08:49:31;;;;;;;15.15;7.47;;;;;;;17.61;54.59;100524.78;7616149;32;37630;-74
2022/10/09 08:53:52;;;;;;;10.18;6.45;;;;;;;18.32;52.75;100517.16;7616694;32;37019;-75
2022/10/09 08:58:13;;;;;;;12.27;6.78;;;;;;;18.52;53.14;100529.75;7616889;32;39464;-75
2022/10/09 09:02:58;;;;;;;15.88;8.85;;;;;;;18.25;53.70;100538.00;7616765;32;39918;-74
2022/10/09 09:07:34;;;;;;;12.65;6.62;;;;;;;18.95;52.50;100534.09;7605977;32;38023;-74
2022/10/09 09:12:02;;;;;;;18.17;6.45;;;;;;;19.00;50.53;100542.28;7600804;32;37058;-74
2022/10/09 09:16:28;;;;;;;13.52;6.45;;;;;;;19.42;48.78;100542.16;7616203;32;39334;-75
2022/10/09 09:20:52;;;;;;;9.30;5.60;;;;;;;18.58;50.87;100547.81;7616782;32;40845;-79
2022/10/09 09:25:19;;;;;;;11.27;5.50;;;;;;;18.59;51.30;100548.63;7605292;32;38059;-77
2022/10/09 09:29:43;;;;;;;10.70;4.85;;;;;;;18.66;49.48;100560.13;7604712;32;37205;-74
2022/10/09 09:34:19;;;;;;;8.02;5.37;;;;;;;19.22;48.08;100549.81;7605943;32;40081;-75
2022/10/09 09:38:36;;;;;;;8.77;5.65;;;;;;;19.25;47.86;100542.84;7614986;32;40701;-73
2022/10/09 09:43:18;;;;;;;11.27;5.45;;;;;;;18.83;48.43;100553.97;7604379;32;38371;-76
2022/10/09 09:47:51;;;;;;;7.85;4.62;;;;;;;18.84;49.57;100550.09;7615962;32;38151;-74
2022/10/09 09:52:08;;;;;;;12.77;5.25;;;;;;;18.70;48.89;100552.03;7605085;32;39303;-75
2022/10/09 09:56:39;;;;;;;11.52;4.30;;;;;;;19.07;47.75;100558.44;7616087;32;39975;-80
2022/10/09 10:01:27;;;;;;;10.57;4.85;;;;;;;19.07;48.34;100558.44;7602488;32;39080;-76
2022/10/09 10:05:44;;;;;;;6.80;3.62;;;;;;;19.77;45.54;100559.06;7605128;32;37136;-78
2022/10/09 10:10:15;;;;;;;7.32;4.07;;;;;;;20.38;44.25;100556.63;7605051;32;40009;-74
2022/10/09 10:14:35;;;;;;;7.82;3.78;;;;;;;20.27;43.96;100554.12;7603949;32;40815;-76
2022/10/09 10:18:53;;;;;;;7.93;3.50;;;;;;;20.41;43.10;100553.22;7604320;32;38260;-71
2022/10/09 10:23:43;;;;;;;7.30;3.42;;;;;;;20.64;42.89;100551.19;7615450;32;37119;-76
2022/10/09 10:28:10;;;;;;;10.00;3.83;;;;;;;20.92;40.69;100554.56;7604778;32;40123;-77
2022/10/09 10:32:33;;;;;;;6.15;3.40;;;;;;;21.69;40.33;100548.56;7604116;32;39922;-76
2022/10/09 10:37:04;;;;;;;6.15;2.83;;;;;;;21.71;38.00;100555.44;7604124;32;37888;-74
2022/10/09 10:41:29;;;;;;;7.65;3.17;;;;;;;21.93;39.92;100554.38;7604054;32;37889;-75
2022/10/09 10:45:57;;;;;;;5.82;3.22;;;;;;;22.56;37.69;100550.28;7615016;32;39101;-74
2022/10/09 10:50:14;;;;;;;6.53;3.35;;;;;;;23.11;35.70;100541.00;7604280;32;39896;-75
2022/10/09 10:55:09;;;;;;;6.53;3.25;;;;;;;22.71;36.72;100537.78;7604249;32;37715;-75
2022/10/09 10:59:28;;;;;;;7.90;3.70;;;;;;;22.30;36.89;100538.16;7612997;32;36984;-72
2022/10/09 11:04:15;;;;;;;6.68;2.72;;;;;;;22.13;35.74;100544.53;7603162;32;39307;-75
2022/10/09 11:09:07;;;;;;;8.98;3.47;;;;;;;22.26;36.59;100544.66;7596992;32;39978;-75
2022/10/09 11:13:37;;;;;;;9.30;2.80;;;;;;;23.10;33.75;100536.59;7602047;32;37555;-74
2022/10/09 11:17:58;;;;;;;6.57;2.75;;;;;;;22.95;34.00;100535.16;7606031;32;37972;-73
2022/10/09 11:22:31;;;;;;;4.75;2.50;;;;;;;22.39;36.22;100531.75;7616143;32;39274;-74
2022/10/09 11:27:08;;;;;;;7.13;2.63;;;;;;;23.54;32.65;100514.78;7616523;32;39733;-74
2022/10/09 11:31:45;;;;;;;6.18;2.50;;;;;;;23.30;32.53;100523.00;7600450;32;38838;-72
2022/10/09 11:36:13;;;;;;;3.80;2.45;;;;;;;22.19;33.71;100522.97;7596714;32;37555;-74
2022/10/09 11:40:42;;;;;;;4.47;2.53;;;;;;;23.47;33.47;100508.94;7611762;32;37875;-75
2022/10/09 11:45:13;;;;;;;6.75;2.70;;;;;;;23.97;31.87;100515.50;7605616;32;39572;-74
2022/10/09 11:49:46;;;;;;;6.35;2.87;;;;;;;24.03;30.46;100507.75;7606512;32;37991;-75
2022/10/09 11:54:04;;;;;;;6.40;3.30;;;;;;;24.27;32.15;100501.41;7617073;32;38016;-76
2022/10/09 11:58:22;;;;;;;6.25;2.90;;;;;;;23.15;31.75;100504.97;7606841;32;39331;-75
2022/10/09 12:02:39;;;;;;;6.57;3.00;;;;;;;24.31;30.71;100485.59;7606645;32;38980;-74
2022/10/09 12:07:01;;;;;;;7.40;2.87;;;;;;;23.73;31.62;100493.94;7617757;32;37950;-76
2022/10/09 12:11:18;;;;;;;4.57;2.47;;;;;;;23.13;32.32;100491.41;7606617;32;36834;-75
2022/10/09 12:15:50;;;;;;;7.75;2.80;;;;;;;22.95;32.79;100492.66;7617717;32;39138;-74
2022/10/09 12:20:18;;;;;;;11.27;2.75;;;;;;;23.42;33.09;100489.66;7606675;32;40041;-72
2022/10/09 12:24:46;;;;;;;7.12;2.65;;;;;;;23.76;30.87;100487.69;7606217;32;38316;-76
2022/10/09 12:29:04;;;;;;;5.10;2.62;;;;;;;23.95;31.29;100487.19;7606746;32;36998;-75
2022/10/09 12:33:38;;;;;;;6.78;3.03;;;;;;;24.40;29.85;100479.91;7606491;32;39977;-76
2022/10/09 12:37:54;;;;;;;4.28;2.35;;;;;;;24.73;30.44;100480.63;7616829;32;40842;-75
2022/10/09 12:42:29;;;;;;;9.30;2.67;;;;;;;25.16;29.36;100469.91;7606036;32;38749;-77
2022/10/09 12:46:46;;;;;;;6.15;2.60;;;;;;;25.37;28.87;100478.13;7606467;32;36652;-76
2022/10/09 12:51:02;;;;;;;5.55;3.10;;;;;;;24.89;29.20;100477.09;7606241;32;40111;-77
2022/10/09 12:55:25;;;;;;;5.00;2.45;;;;;;;24.92;30.29;100477.22;7606239;32;40956;-77
2022/10/09 12:59:43;;;;;;;9.45;2.62;;;;;;;24.72;30.61;100473.41;7606232;32;38023;-77
2022/10/09 13:04:03;;;;;;;8.23;3.00;;;;;;;25.43;29.58;100468.31;7617077;32;37679;-77
2022/10/09 13:08:31;;;;;;;5.55;2.50;;;;;;;24.64;30.07;100465.16;7606275;32;39201;-77
2022/10/09 13:12:50;;;;;;;5.07;2.37;;;;;;;25.15;28.92;100445.16;7616967;32;39702;-78
2022/10/09 13:17:29;;;;;;;4.32;2.55;;;;;;;25.89;29.06;100430.81;7606138;32;37960;-77
2022/10/09 13:22:18;;;;;;;9.05;2.75;;;;;;;25.27;29.71;100436.78;7606083;32;38826;-77
2022/10/09 13:26:34;;;;;;;3.00;2.00;;;;;;;25.34;28.57;100434.19;7605898;32;39508;-78
2022/10/09 13:30:51;;;;;;;4.65;2.25;;;;;;;24.98;28.87;100444.28;7605727;32;40046;-77
2022/10/09 13:35:07;;;;;;;4.07;2.00;;;;;;;24.16;30.60;100442.53;7605295;32;35987;-78
2022/10/09 13:39:23;;;;;;;7.75;2.47;;;;;;;24.59;28.76;100443.13;7605656;32;37024;-77
2022/10/09 13:43:39;;;;;;;3.85;2.30;;;;;;;25.38;29.23;100431.50;7605797;32;39278;-78
2022/10/09 13:47:55;;;;;;;7.93;2.55;;;;;;;25.34;27.30;100430.59;7604142;32;39879;-76
2022/10/09 13:52:11;;;;;;;6.97;2.08;;;;;;;25.95;27.20;100418.25;7602561;32;37721;-78
2022/10/09 13:56:28;;;;;;;3.90;2.37;;;;;;;26.13;27.05;100422.28;7603663;32;38579;-77
2022/10/09 14:00:44;;;;;;;3.78;1.60;;;;;;;25.85;26.78;100428.75;7604740;32;39285;-77
2022/10/09 14:05:00;;;;;;;3.92;2.00;;;;;;;24.46;28.75;100428.38;7605145;32;40720;-78
2022/10/09 14:09:16;;;;;;;6.10;2.95;;;;;;;25.02;28.00;100422.88;7604875;32;37825;-78
2022/10/09 14:13:33;;;;;;;8.27;2.40;;;;;;;25.07;28.85;100425.44;7605266;32;37239;-78
2022/10/09 14:17:49;;;;;;;4.18;2.30;;;;;;;25.04;28.11;100430.91;7605201;32;39836;-78
2022/10/09 14:22:06;;;;;;;6.68;2.60;;;;;;;24.32;29.17;100425.94;7605096;32;39992;-77
2022/10/09 14:26:22;;;;;;;3.10;1.90;;;;;;;24.73;28.38;100424.84;7604953;32;38838;-78
2022/10/09 14:30:42;;;;;;;9.95;2.45;;;;;;;24.70;27.24;100422.78;7604568;32;37848;-79
2022/10/09 14:34:58;;;;;;;7.05;2.33;;;;;;;25.17;28.71;100426.91;7604790;32;40076;-79
2022/10/09 14:39:15;;;;;;;7.00;2.85;;;;;;;25.85;27.61;100414.78;7604735;32;40684;-80
2022/10/09 14:43:31;;;;;;;5.05;2.42;;;;;;;25.49;24.91;100411.09;7604223;32;38686;-79
2022/10/09 14:47:47;;;;;;;7.95;2.55;;;;;;;25.64;27.05;100417.03;7606340;32;37700;-79
2022/10/09 14:52:03;;;;;;;3.83;2.20;;;;;;;26.68;26.71;100415.97;7607107;32;39912;-78
2022/10/09 14:56:20;;;;;;;5.10;2.53;;;;;;;26.47;27.82;100424.66;7607269;32;40154;-77
2022/10/09 15:00:36;;;;;;;7.22;2.40;;;;;;;27.03;25.43;100417.88;7607337;32;38279;-77
2022/10/09 15:04:52;;;;;;;6.28;2.35;;;;;;;27.69;25.94;100405.56;7618480;32;37909;-75
2022/10/09 15:09:08;;;;;;;5.62;2.42;;;;;;;29.07;24.15;100403.59;7607243;32;39404;-79
2022/10/09 15:13:24;;;;;;;6.82;2.53;;;;;;;29.27;23.82;100409.06;7606335;32;40879;-79
2022/10/09 15:17:40;;;;;;;5.03;2.12;;;;;;;26.69;25.73;100420.37;7604016;32;38086;-77
2022/10/09 15:21:56;;;;;;;5.68;2.62;;;;;;;25.78;26.83;100422.97;7604151;32;36628;-77
2022/10/09 15:26:13;;;;;;;7.32;2.83;;;;;;;25.86;28.78;100423.97;7605204;32;39312;-77
2022/10/09 15:30:29;;;;;;;6.85;2.47;;;;;;;25.96;29.73;100431.84;7606308;32;39534;-77
2022/10/09 15:34:45;;;;;;;7.68;2.72;;;;;;;25.29;28.79;100437.22;7606617;32;37958;-79
2022/10/09 15:39:04;;;;;;;8.77;3.35;;;;;;;24.76;30.84;100439.25;7607240;32;37857;-77
2022/10/09 15:43:24;;;;;;;5.40;3.15;;;;;;;24.50;31.10;100446.00;7607191;32;39371;-78
2022/10/09 15:47:40;;;;;;;6.37;2.83;;;;;;;24.04;32.52;100453.66;7607217;32;40897;-77
2022/10/09 15:52:05;;;;;;;5.18;2.10;;;;;;;23.66;31.82;100449.16;7606941;32;38777;-78
2022/10/09 15:56:23;;;;;;;6.60;2.70;;;;;;;22.77;35.02;100459.44;7606485;32;37018;-77
2022/10/09 16:00:41;;;;;;;7.22;3.25;;;;;;;22.08;35.98;100461.44;7606837;32;39098;-77
2022/10/09 16:04:57;;;;;;;7.20;3.37;;;;;;;21.78;36.95;100462.53;7606554;32;39723;-77
2022/10/09 16:09:13;;;;;;;6.57;2.58;;;;;;;21.25;37.58;100468.16;7606783;32;38182;-77
2022/10/09 16:13:29;;;;;;;5.65;2.50;;;;;;;21.27;36.58;100460.31;7606696;32;37915;-76
2022/10/09 16:17:47;;;;;;;6.22;2.22;;;;;;;20.56;37.54;100475.22;7606626;32;39387;-74
2022/10/09 16:22:04;;;;;;;4.70;2.60;;;;;;;20.60;36.70;100478.97;7606740;32;39912;-75
2022/10/09 16:26:21;;;;;;;7.55;3.03;;;;;;;20.55;38.30;100484.66;7606560;32;37978;-74
2022/10/09 16:30:42;;;;;;;5.80;2.78;;;;;;;20.32;40.82;100488.69;7606518;32;36905;-76
2022/10/09 16:34:58;;;;;;;4.90;2.00;;;;;;;19.99;39.91;100500.09;7606657;32;40273;-72
2022/10/09 16:39:14;;;;;;;4.62;2.35;;;;;;;20.04;37.65;100502.72;7606197;32;39900;-73
2022/10/09 16:43:34;;;;;;;10.07;2.40;;;;;;;20.02;38.25;100510.53;7606391;32;37769;-75
2022/10/09 16:47:50;;;;;;;5.90;2.53;;;;;;;19.59;41.91;100516.59;7606333;32;37125;-76
2022/10/09 16:52:07;;;;;;;6.93;2.65;;;;;;;19.45;42.55;100511.94;7605815;32;39064;-72
2022/10/09 16:56:26;;;;;;;11.02;3.25;;;;;;;19.14;43.52;100520.97;7606083;32;40584;-76
2022/10/09 17:00:42;;;;;;;8.60;3.60;;;;;;;19.13;43.99;100527.63;7606031;32;38691;-74
2022/10/09 17:04:58;;;;;;;6.70;3.15;;;;;;;19.01;42.62;100532.06;7605965;32;37374;-75
2022/10/09 17:09:15;;;;;;;9.40;4.00;;;;;;;18.86;43.94;100531.25;7606022;32;39394;-76
2022/10/09 17:13:31;;;;;;;18.45;4.12;;;;;;;19.01;44.67;100534.84;7600537;32;40616;-71
2022/10/09 17:17:47;;;;;;;7.57;3.10;;;;;;;18.57;46.31;100545.37;7604030;32;37777;-74
2022/10/09 17:22:05;;;;;;;8.75;2.47;;;;;;;18.33;46.81;100554.69;7604473;32;37788;-74
2022/10/09 17:26:22;;;;;;;7.07;2.92;;;;;;;18.19;45.60;100553.84;7605042;32;40076;-74
2022/10/09 17:30:40;;;;;;;12.57;2.75;;;;;;;18.24;47.36;100558.44;7605304;32;39999;-75
2022/10/09 17:34:56;;;;;;;8.32;2.60;;;;;;;18.07;47.75;100559.03;7604308;32;38317;-74
2022/10/09 17:39:14;;;;;;;4.50;2.20;;;;;;;17.63;48.06;100556.41;7605172;32;37896;-74
2022/10/09 17:43:31;;;;;;;7.25;1.83;;;;;;;17.65;46.99;100558.87;7604501;32;39143;-75
2022/10/09 17:47:48;;;;;;;7.32;2.17;;;;;;;17.70;46.02;100566.25;7605165;32;40631;-74
2022/10/09 17:52:04;;;;;;;7.62;2.53;;;;;;;17.75;45.88;100557.91;7605004;32;37030;-75
2022/10/09 17:56:20;;;;;;;18.40;3.15;;;;;;;17.49;48.22;100569.34;7604459;32;37830;-76
2022/10/09 18:00:37;;;;;;;13.95;3.12;;;;;;;17.71;46.96;100570.62;7616063;32;39414;-75
2022/10/09 18:04:56;;;;;;;9.55;3.05;;;;;;;17.54;47.66;100574.78;7603574;32;39992;-75
2022/10/09 18:09:12;;;;;;;6.35;3.58;;;;;;;17.49;48.23;100579.53;7604059;32;37865;-73
2022/10/09 18:13:29;;;;;;;6.65;3.67;;;;;;;17.34;49.51;100586.09;7603324;32;37008;-75
2022/10/09 18:17:45;;;;;;;10.52;3.67;;;;;;;17.12;50.89;100590.25;7603510;32;40085;-75
2022/10/09 18:22:01;;;;;;;10.80;3.70;;;;;;;17.16;50.89;100594.06;7602542;32;40843;-74
2022/10/09 18:26:19;;;;;;;8.45;3.92;;;;;;;17.47;50.27;100585.34;7602416;32;38834;-76
2022/10/09 18:30:41;;;;;;;7.28;4.07;;;;;;;17.47;50.25;100593.59;7603306;32;38121;-76
2022/10/09 18:34:57;;;;;;;7.87;3.97;;;;;;;16.88;51.21;100599.37;7602852;32;39100;-75
2022/10/09 18:39:14;;;;;;;8.05;3.78;;;;;;;17.12;50.73;100600.44;7603230;32;39854;-75
2022/10/09 18:43:30;;;;;;;10.38;4.37;;;;;;;17.19;51.03;100598.16;7603603;32;37740;-75
2022/10/09 18:47:46;;;;;;;7.93;4.45;;;;;;;17.10;51.64;100595.22;7603874;32;38017;-75
2022/10/09 18:52:02;;;;;;;8.15;4.20;;;;;;;17.13;52.01;100600.16;7603668;32;39388;-75
2022/10/09 18:56:20;;;;;;;8.80;4.57;;;;;;;17.10;52.06;100609.00;7614044;32;40630;-76
2022/10/09 19:00:38;;;;;;;7.70;4.05;;;;;;;16.89;51.34;100612.03;7603844;32;38766;-76
2022/10/09 19:04:54;;;;;;;8.80;4.40;;;;;;;16.79;51.81;100614.88;7603010;32;37169;-74
2022/10/09 19:09:11;;;;;;;12.40;4.10;;;;;;;17.12;50.72;100612.28;7603491;32;39268;-75
2022/10/09 19:13:27;;;;;;;7.57;4.30;;;;;;;16.84;50.88;100616.78;7602819;32;40669;-76
2022/10/09 19:17:43;;;;;;;11.65;3.87;;;;;;;16.94;50.87;100622.16;7614166;32;37934;-78
2022/10/09 19:21:59;;;;;;;11.25;4.40;;;;;;;16.55;51.05;100634.13;7602808;32;36913;-75
2022/10/09 19:26:16;;;;;;;11.65;4.20;;;;;;;16.77;50.36;100625.34;7602824;32;37368;-74
2022/10/09 19:30:32;;;;;;;12.48;4.45;;;;;;;16.58;49.46;100635.50;7602278;32;40014;-74
2022/10/09 19:34:50;;;;;;;5.95;3.70;;;;;;;16.32;49.82;100635.75;7602354;32;37787;-74
2022/10/09 19:39:07;;;;;;;10.00;3.70;;;;;;;16.38;49.39;100648.31;7605547;32;37829;-74
2022/10/09 19:43:24;;;;;;;12.15;3.92;;;;;;;16.13;48.72;100644.69;7603364;32;40096;-74
2022/10/09 19:47:40;;;;;;;7.60;3.62;;;;;;;16.39;48.16;100651.91;7605047;32;40128;-74
2022/10/09 19:51:56;;;;;;;5.82;3.30;;;;;;;16.21;48.56;100657.03;7605495;32;37512;-75
2022/10/09 19:56:15;;;;;;;8.60;2.78;;;;;;;16.22;47.98;100666.09;7616999;32;37291;-74
2022/10/09 20:00:31;;;;;;;10.95;3.25;;;;;;;16.27;47.38;100674.31;7600902;32;146126;-74